createdAt,value
2023-01-15T00:02:07.322Z,68.60
2023-01-15T00:17:11.558Z,68.34
2023-01-15T00:32:16.287Z,69.04
2023-01-15T00:47:20.363Z,69.56
2023-01-15T01:02:26.468Z,69.84
2023-01-15T01:17:30.606Z,70.18
2023-01-15T01:32:35.831Z,70.43
2023-01-15T01:47:40.240Z,70.87
2023-01-15T02:02:46.147Z,71.23
2023-01-15T02:18:01.915Z,71.72
2023-01-15T02:33:12.409Z,71.77
2023-01-15T02:48:17.130Z,72.24
2023-01-15T03:03:23.773Z,72.91
2023-01-15T03:18:28.452Z,73.53
2023-01-15T03:33:34.864Z,74.09
2023-01-15T03:48:59.848Z,74.44
2023-01-15T04:04:06.626Z,76.10
2023-01-15T04:19:11.839Z,76.89
2023-01-15T04:34:23.043Z,77.53
2023-01-15T04:49:26.868Z,78.41
2023-01-15T05:04:31.978Z,79.65
2023-01-15T05:19:36.337Z,79.76
2023-01-15T05:34:41.062Z,81.34
2023-01-15T05:49:44.955Z,82.48
2023-01-15T06:04:50.167Z,83.25
2023-01-15T06:19:54.152Z,83.16
2023-01-15T06:34:59.273Z,82.51
2023-01-15T06:50:03.073Z,81.84
2023-01-15T07:05:08.700Z,81.75
2023-01-15T07:20:13.838Z,81.47
2023-01-15T07:35:18.569Z,81.16
2023-01-15T07:50:23.002Z,80.80
2023-01-15T08:05:27.873Z,79.74
2023-01-15T08:20:32.171Z,78.59
2023-01-15T08:35:37.020Z,77.75
2023-01-15T08:50:41.054Z,77.22
2023-01-15T09:05:45.545Z,76.48
2023-01-15T09:20:49.422Z,75.52
2023-01-15T09:35:54.893Z,75.43
2023-01-15T09:51:04.949Z,77.82
2023-01-15T10:06:11.178Z,80.76
2023-01-15T10:21:32.790Z,81.74
2023-01-15T10:36:38.264Z,81.93
2023-01-15T10:51:55.227Z,82.18
2023-01-15T11:07:01.561Z,83.26
2023-01-15T11:22:13.331Z,84.13
2023-01-15T11:37:17.671Z,84.34
2023-01-15T11:52:22.315Z,85.01
2023-01-15T12:07:27.359Z,85.43
2023-01-15T12:22:47.913Z,86.09
2023-01-15T12:37:54.624Z,86.91
2023-01-15T12:53:01.601Z,87.24
2023-01-15T13:08:07.804Z,87.62
2023-01-15T13:23:30.489Z,87.49
2023-01-15T13:38:39.751Z,87.71
2023-01-15T13:53:45.570Z,87.20
2023-01-15T14:08:52.705Z,86.76
2023-01-15T14:23:59.861Z,86.43
2023-01-15T14:39:04.232Z,86.15
2023-01-15T14:54:08.728Z,85.54
2023-01-15T15:09:14.167Z,85.34
2023-01-15T15:24:28.464Z,84.96
2023-01-15T15:39:43.553Z,84.29
2023-01-15T15:54:57.398Z,83.92
2023-01-15T16:10:10.995Z,83.72
2023-01-15T16:25:21.859Z,83.28
2023-01-15T16:40:28.799Z,82.94
2023-01-15T16:55:42.908Z,82.67
2023-01-15T17:10:57.924Z,82.34
2023-01-15T17:26:02.344Z,81.67
2023-01-15T17:41:08.811Z,81.37
2023-01-15T17:56:31.147Z,80.75
2023-01-15T18:11:35.563Z,78.58
2023-01-15T18:26:40.020Z,75.85
2023-01-15T18:41:45.731Z,74.59
2023-01-15T18:56:49.758Z,73.57
2023-01-15T19:11:54.555Z,72.10
2023-01-15T19:26:58.585Z,71.10
2023-01-15T19:42:21.721Z,70.93
2023-01-15T19:57:25.725Z,70.53
2023-01-15T20:12:49.235Z,70.13
2023-01-15T20:27:53.267Z,71.53
2023-01-15T20:43:16.294Z,72.39
2023-01-15T20:58:20.548Z,72.55
2023-01-15T21:13:25.019Z,72.00
2023-01-15T21:28:29.559Z,71.71
2023-01-15T21:43:51.931Z,71.50
2023-01-15T21:58:56.067Z,71.31
2023-01-15T22:14:00.915Z,70.94
2023-01-15T22:29:05.018Z,70.89
2023-01-15T22:44:10.294Z,70.97
2023-01-15T22:59:14.334Z,71.34
2023-01-15T23:14:19.653Z,71.80
2023-01-15T23:29:23.579Z,71.91
2023-01-15T23:44:47.169Z,71.79
2023-01-15T23:59:51.103Z,71.62
